Time;durP1;ratioP1;P1;durP2;ratioP2;P2;SDS_P1;SDS_P2;PMS_P1;PMS_P2;Temp;Humidity;BMP_temperature;BMP_pressure;BME280_temperature;BME280_humidity;BME280_pressure;Samples;Min_cycle;Max_cycle;Signal;HPM_P1;HPM_P2
2022/07/10 00:00:10;;;;;;;3.80;3.50;;;16.40;99.90;;;;;;6125994;23;20178;-68
2022/07/10 00:02:37;;;;;;;3.50;3.30;;;16.40;99.90;;;;;;6126245;23;20146;-67
2022/07/10 00:05:03;;;;;;;5.70;3.40;;;16.40;99.90;;;;;;6126002;23;20178;-68
2022/07/10 00:07:29;;;;;;;3.30;3.13;;;16.40;99.90;;;;;;6126305;23;20150;-67
2022/07/10 00:09:55;;;;;;;3.38;3.17;;;16.40;99.90;;;;;;6126006;23;20173;-67
2022/07/10 00:12:20;;;;;;;3.42;3.13;;;16.40;99.90;;;;;;6125722;23;20146;-67
2022/07/10 00:14:46;;;;;;;3.42;3.22;;;16.30;99.90;;;;;;6125904;23;20603;-67
2022/07/10 00:17:11;;;;;;;3.45;3.25;;;16.30;99.90;;;;;;6126225;23;20154;-70
2022/07/10 00:19:37;;;;;;;3.05;2.75;;;16.40;99.90;;;;;;6125765;23;20208;-67
2022/07/10 00:22:03;;;;;;;3.53;3.25;;;16.50;99.90;;;;;;6125977;23;20221;-68
2022/07/10 00:24:28;;;;;;;3.35;3.15;;;16.50;99.90;;;;;;6126346;23;20630;-68
2022/07/10 00:26:54;;;;;;;4.00;3.63;;;16.50;99.90;;;;;;6125747;23;20173;-67
2022/07/10 00:29:20;;;;;;;3.45;2.92;;;16.50;99.90;;;;;;6125071;23;20150;-67
2022/07/10 00:31:45;;;;;;;3.38;3.08;;;16.40;99.90;;;;;;6125342;23;20177;-67
2022/07/10 00:34:12;;;;;;;3.38;3.17;;;16.40;99.90;;;;;;6100120;23;20158;-67
2022/07/10 00:36:38;;;;;;;3.20;2.95;;;16.30;99.90;;;;;;6125812;23;20161;-67
2022/07/10 00:39:03;;;;;;;2.92;2.80;;;16.30;99.90;;;;;;6125437;23;20153;-67
2022/07/10 00:41:29;;;;;;;3.50;3.20;;;16.30;99.90;;;;;;6126196;23;20177;-69
2022/07/10 00:44:00;;;;;;;3.50;3.30;;;16.40;99.90;;;;;;6125959;23;20173;-68
2022/07/10 00:46:27;;;;;;;3.15;2.95;;;16.20;99.90;;;;;;6125344;23;20180;-67
2022/07/10 00:48:54;;;;;;;3.40;3.20;;;16.20;99.90;;;;;;6125399;23;20205;-68
2022/07/10 00:51:25;;;;;;;3.38;3.08;;;16.10;99.90;;;;;;6124374;23;20197;-68
2022/07/10 00:53:51;;;;;;;4.13;3.22;;;16.00;99.90;;;;;;6125650;23;20138;-67
2022/07/10 00:56:21;;;;;;;3.75;3.50;;;15.90;99.90;;;;;;6125685;23;20150;-68
2022/07/10 00:58:47;;;;;;;3.92;3.60;;;15.90;99.90;;;;;;6125705;23;20154;-67
2022/07/10 01:01:13;;;;;;;3.47;3.28;;;15.80;99.90;;;;;;6125569;23;20201;-68
2022/07/10 01:03:40;;;;;;;14.35;7.47;;;15.80;99.90;;;;;;6125586;23;20154;-68
2022/07/10 01:06:05;;;;;;;4.68;4.28;;;15.70;99.90;;;;;;6125867;23;20256;-68
2022/07/10 01:08:33;;;;;;;4.18;3.88;;;15.70;99.90;;;;;;6124891;23;20178;-68
2022/07/10 01:10:58;;;;;;;4.22;3.92;;;15.60;99.90;;;;;;6125542;23;20197;-68
2022/07/10 01:13:24;;;;;;;5.18;4.68;;;15.60;99.90;;;;;;6125628;23;20595;-67
2022/07/10 01:15:50;;;;;;;3.80;3.60;;;15.60;99.90;;;;;;6125980;23;20229;-68
2022/07/10 01:18:16;;;;;;;3.67;3.47;;;15.60;99.90;;;;;;6125626;23;20221;-67
2022/07/10 01:20:42;;;;;;;4.03;3.72;;;15.50;99.90;;;;;;6125553;23;20208;-69
2022/07/10 01:23:08;;;;;;;4.53;4.15;;;15.50;99.90;;;;;;6125594;23;20154;-70
2022/07/10 01:25:33;;;;;;;3.75;3.40;;;15.50;99.90;;;;;;6125714;23;20545;-67
2022/07/10 01:27:59;;;;;;;4.60;4.30;;;15.40;99.90;;;;;;6124920;23;20146;-67
2022/07/10 01:30:26;;;;;;;4.25;3.95;;;15.40;99.90;;;;;;6124878;23;20170;-68
2022/07/10 01:32:54;;;;;;;5.60;3.70;;;15.40;99.90;;;;;;6125767;23;20482;-67
2022/07/10 01:35:20;;;;;;;4.38;3.97;;;15.30;99.90;;;;;;6125957;23;20234;-67
2022/07/10 01:37:46;;;;;;;4.25;3.95;;;15.30;99.90;;;;;;6125499;23;20150;-68
2022/07/10 01:40:12;;;;;;;3.80;3.60;;;15.30;99.90;;;;;;6124586;23;20177;-67
2022/07/10 01:42:38;;;;;;;5.35;3.85;;;15.40;99.90;;;;;;6125687;23;20182;-68
2022/07/10 01:45:08;;;;;;;4.03;3.63;;;15.40;99.90;;;;;;6125244;23;20186;-67
2022/07/10 01:47:34;;;;;;;3.80;3.42;;;15.40;99.90;;;;;;6125423;23;20201;-67
2022/07/10 01:50:00;;;;;;;4.38;3.88;;;15.30;99.90;;;;;;6125002;23;20170;-68
2022/07/10 01:52:26;;;;;;;4.38;3.95;;;15.30;99.90;;;;;;6125442;23;20154;-67
2022/07/10 01:54:51;;;;;;;4.32;4.03;;;15.30;99.90;;;;;;6125508;23;20217;-68
2022/07/10 01:57:17;;;;;;;4.45;4.05;;;15.30;99.90;;;;;;6125961;23;20252;-68
2022/07/10 01:59:43;;;;;;;6.03;4.40;;;15.30;99.90;;;;;;6124991;23;20174;-69
2022/07/10 02:02:09;;;;;;;4.38;3.97;;;15.20;99.90;;;;;;6125301;23;20233;-69
2022/07/10 02:04:41;;;;;;;4.97;4.43;;;15.30;99.90;;;;;;6124760;23;20178;-69
2022/07/10 02:07:10;;;;;;;3.97;3.75;;;15.30;99.90;;;;;;6125264;23;20130;-68
2022/07/10 02:09:37;;;;;;;4.20;3.85;;;15.30;99.90;;;;;;6124693;23;20491;-67
2022/07/10 02:12:03;;;;;;;4.22;3.92;;;15.40;99.90;;;;;;6125427;23;20229;-67
2022/07/10 02:14:28;;;;;;;4.00;3.70;;;15.40;99.90;;;;;;6125203;23;20157;-67
2022/07/10 02:16:55;;;;;;;3.65;3.45;;;15.50;99.90;;;;;;6125392;23;20162;-67
2022/07/10 02:19:21;;;;;;;3.90;3.67;;;15.50;99.90;;;;;;6124687;23;20476;-68
2022/07/10 02:21:46;;;;;;;5.63;3.67;;;15.60;99.90;;;;;;6125311;23;20150;-68
2022/07/10 02:24:12;;;;;;;4.15;3.75;;;15.40;99.90;;;;;;6127021;23;20678;-67
2022/07/10 02:26:38;;;;;;;3.85;3.58;;;15.40;99.90;;;;;;6127036;23;20166;-69
2022/07/10 02:29:04;;;;;;;4.03;3.78;;;15.30;99.90;;;;;;6127097;23;20558;-67
2022/07/10 02:31:29;;;;;;;3.72;3.42;;;15.30;99.90;;;;;;6126991;23;20701;-68
2022/07/10 02:33:55;;;;;;;4.07;3.72;;;15.30;99.90;;;;;;6127186;23;20154;-68
2022/07/10 02:36:20;;;;;;;4.45;3.92;;;15.30;99.90;;;;;;6126559;23;20154;-67
2022/07/10 02:38:46;;;;;;;3.92;3.60;;;15.30;99.90;;;;;;6126770;23;20157;-68
2022/07/10 02:41:12;;;;;;;3.90;3.60;;;15.30;99.90;;;;;;6126521;23;20506;-67
2022/07/10 02:43:37;;;;;;;3.75;3.45;;;15.30;99.90;;;;;;6127088;23;20154;-67
2022/07/10 02:46:03;;;;;;;3.88;3.58;;;15.30;99.90;;;;;;6126876;23;20248;-67
2022/07/10 02:48:29;;;;;;;4.15;3.92;;;15.30;99.90;;;;;;6127198;23;20522;-70
2022/07/10 02:50:54;;;;;;;3.70;3.50;;;15.30;99.90;;;;;;6126914;23;20508;-69
2022/07/10 02:53:20;;;;;;;4.40;4.00;;;15.20;99.90;;;;;;6126353;23;20217;-67
2022/07/10 02:55:46;;;;;;;3.70;3.40;;;15.20;99.90;;;;;;6126501;23;20154;-68
2022/07/10 02:58:11;;;;;;;4.60;4.20;;;15.20;99.90;;;;;;6126497;23;20538;-68
2022/07/10 03:00:37;;;;;;;4.60;4.20;;;15.10;99.90;;;;;;6126378;23;20627;-68
2022/07/10 03:03:03;;;;;;;3.88;3.58;;;15.00;99.90;;;;;;6126189;23;20658;-68
2022/07/10 03:05:29;;;;;;;3.90;3.70;;;14.90;99.90;;;;;;6126637;23;20189;-67
2022/07/10 03:07:54;;;;;;;4.93;3.72;;;14.90;99.90;;;;;;6126788;23;20161;-67
2022/07/10 03:10:20;;;;;;;4.10;3.90;;;14.90;99.90;;;;;;6126262;23;20185;-67
2022/07/10 03:12:46;;;;;;;5.05;4.63;;;14.90;99.90;;;;;;6126329;23;20487;-67
2022/07/10 03:15:13;;;;;;;5.88;4.07;;;14.90;99.90;;;;;;6126653;23;20160;-67
2022/07/10 03:17:39;;;;;;;4.40;3.90;;;14.90;99.90;;;;;;6126279;23;20161;-68
2022/07/10 03:20:06;;;;;;;5.03;4.15;;;14.80;99.90;;;;;;6124219;23;20170;-67
2022/07/10 03:22:32;;;;;;;4.35;3.95;;;14.80;99.90;;;;;;6126944;23;20154;-67
2022/07/10 03:24:58;;;;;;;4.05;3.65;;;14.80;99.90;;;;;;6126889;23;20178;-68
2022/07/10 03:27:24;;;;;;;4.15;3.78;;;14.80;99.90;;;;;;6126846;23;20587;-68
2022/07/10 03:29:49;;;;;;;5.00;3.60;;;14.80;99.90;;;;;;6126000;23;20489;-70
2022/07/10 03:32:15;;;;;;;3.60;3.30;;;14.80;99.90;;;;;;6126228;23;20619;-67
2022/07/10 03:34:41;;;;;;;3.67;3.38;;;14.80;99.90;;;;;;6126514;23;20150;-67
2022/07/10 03:37:06;;;;;;;3.35;3.08;;;14.80;99.90;;;;;;6125949;23;20158;-68
2022/07/10 03:39:32;;;;;;;3.50;3.30;;;14.90;99.90;;;;;;6125564;23;20157;-67
2022/07/10 03:41:58;;;;;;;6.07;3.20;;;14.90;99.90;;;;;;6126631;23;20150;-69
2022/07/10 03:44:24;;;;;;;3.95;3.10;;;14.90;99.90;;;;;;6126608;23;20162;-67
2022/07/10 03:46:49;;;;;;;3.17;2.97;;;15.00;99.90;;;;;;6126288;23;20185;-68
2022/07/10 03:49:15;;;;;;;3.70;3.33;;;15.00;99.90;;;;;;6126721;23;20146;-67
2022/07/10 03:51:41;;;;;;;6.15;3.00;;;15.00;99.90;;;;;;6126037;23;20166;-69
2022/07/10 03:54:07;;;;;;;2.90;2.80;;;15.10;99.90;;;;;;6125741;23;20157;-68
2022/07/10 03:59:16;;;;;;;2.90;2.70;;;15.20;99.90;;;;;;6126323;23;20145;-70
2022/07/10 04:01:42;;;;;;;3.45;3.13;;;15.20;99.90;;;;;;6126228;23;20194;-69
2022/07/10 04:04:08;;;;;;;3.88;2.72;;;15.30;99.90;;;;;;6125708;23;20146;-68
2022/07/10 04:06:33;;;;;;;3.03;2.75;;;15.30;99.90;;;;;;6126240;23;20205;-68
2022/07/10 04:08:59;;;;;;;3.47;3.20;;;15.30;99.90;;;;;;6124950;23;20169;-69
2022/07/10 04:11:24;;;;;;;3.47;3.28;;;15.30;99.90;;;;;;6125238;23;20177;-68
2022/07/10 04:13:50;;;;;;;3.55;3.25;;;15.30;99.90;;;;;;6125566;23;20161;-68
2022/07/10 04:16:16;;;;;;;3.50;3.20;;;15.30;99.90;;;;;;6126103;23;20154;-68
2022/07/10 04:18:42;;;;;;;2.95;2.75;;;15.30;99.90;;;;;;6125905;23;20228;-68
2022/07/10 04:21:08;;;;;;;3.13;2.83;;;15.40;99.90;;;;;;6125487;23;20170;-68
2022/07/10 04:23:33;;;;;;;3.70;3.28;;;15.40;99.90;;;;;;6125893;23;20146;-68
2022/07/10 04:26:00;;;;;;;3.38;3.17;;;15.40;99.90;;;;;;6125711;23;20240;-70
2022/07/10 04:28:25;;;;;;;4.00;2.83;;;15.40;99.90;;;;;;6124992;23;20293;-73
2022/07/10 04:30:51;;;;;;;3.90;2.90;;;15.30;99.90;;;;;;6124618;23;20647;-69
2022/07/10 04:33:17;;;;;;;4.65;2.88;;;15.20;99.90;;;;;;6124778;23;20161;-73
2022/07/10 04:35:43;;;;;;;2.75;2.55;;;15.10;99.90;;;;;;6098230;23;20190;-70
2022/07/10 04:38:08;;;;;;;3.50;3.10;;;15.10;99.90;;;;;;6124154;23;20142;-70
2022/07/10 04:40:34;;;;;;;5.78;4.38;;;15.10;99.90;;;;;;6123577;23;20180;-72
2022/07/10 04:43:00;;;;;;;4.10;3.20;;;15.10;99.90;;;;;;6124776;23;20157;-74
2022/07/10 04:45:25;;;;;;;2.75;2.55;;;15.20;99.90;;;;;;6123993;23;20173;-70
2022/07/10 04:47:51;;;;;;;3.58;2.75;;;15.40;99.90;;;;;;6124252;23;20146;-70
2022/07/10 04:50:17;;;;;;;2.50;2.22;;;15.60;99.90;;;;;;6123940;23;20658;-71
2022/07/10 04:52:43;;;;;;;3.85;2.63;;;15.80;99.90;;;;;;6124193;23;20142;-71
2022/07/10 04:55:09;;;;;;;3.03;2.78;;;15.90;99.90;;;;;;6123654;23;20535;-73
2022/07/10 04:57:35;;;;;;;4.72;2.33;;;16.20;99.90;;;;;;6124597;23;20221;-70
2022/07/10 05:00:00;;;;;;;3.00;2.80;;;16.60;99.90;;;;;;6123966;23;20170;-71
2022/07/10 05:02:26;;;;;;;4.55;2.15;;;16.70;99.90;;;;;;6123815;23;20204;-73
2022/07/10 05:04:52;;;;;;;2.55;2.30;;;16.70;99.90;;;;;;6123985;23;20177;-71
2022/07/10 05:07:17;;;;;;;2.22;2.00;;;16.70;99.90;;;;;;6124198;23;20153;-70
2022/07/10 05:09:43;;;;;;;4.97;2.40;;;16.60;99.90;;;;;;6124339;23;20177;-70
2022/07/10 05:12:09;;;;;;;2.20;2.10;;;16.40;99.90;;;;;;6124716;23;20177;-71
2022/07/10 05:14:35;;;;;;;2.42;2.05;;;16.40;99.90;;;;;;6124550;23;20193;-70
2022/07/10 05:17:00;;;;;;;2.33;2.20;;;16.30;99.90;;;;;;6123200;23;20154;-70
2022/07/10 05:19:26;;;;;;;3.45;2.00;;;16.40;99.90;;;;;;6123393;23;20153;-70
2022/07/10 05:21:51;;;;;;;3.85;1.92;;;16.50;99.90;;;;;;6124318;23;20154;-71
2022/07/10 05:24:17;;;;;;;5.13;2.40;;;16.60;99.90;;;;;;6124188;23;20204;-71
2022/07/10 05:26:43;;;;;;;2.58;1.80;;;16.70;99.90;;;;;;6123569;23;20172;-72
2022/07/10 05:29:08;;;;;;;2.05;1.95;;;16.80;99.90;;;;;;6123873;23;20225;-71
2022/07/10 05:31:34;;;;;;;3.40;2.22;;;17.10;99.90;;;;;;6124433;23;20257;-70
2022/07/10 05:34:00;;;;;;;3.65;1.88;;;17.20;99.90;;;;;;6124237;23;20182;-71
2022/07/10 05:36:26;;;;;;;2.22;1.67;;;17.20;99.90;;;;;;6124641;23;20522;-71
2022/07/10 05:38:52;;;;;;;2.13;1.80;;;17.30;99.90;;;;;;6123787;23;20150;-69
2022/07/10 05:41:17;;;;;;;2.70;1.90;;;17.40;99.90;;;;;;6122809;23;20173;-70
2022/07/10 05:43:43;;;;;;;6.05;1.95;;;17.40;99.90;;;;;;6097047;23;20146;-69
2022/07/10 05:46:09;;;;;;;2.22;1.95;;;17.30;99.90;;;;;;6124396;23;20173;-69
2022/07/10 05:48:34;;;;;;;2.60;1.98;;;17.30;99.90;;;;;;6125231;23;20149;-70
2022/07/10 05:51:00;;;;;;;3.25;1.90;;;17.40;99.90;;;;;;6124846;23;20249;-70
2022/07/10 05:53:26;;;;;;;4.82;2.08;;;17.30;99.90;;;;;;6124514;23;20150;-70
2022/07/10 05:55:51;;;;;;;4.15;2.03;;;17.20;99.90;;;;;;6124800;23;20577;-69
2022/07/10 05:58:17;;;;;;;1.98;1.83;;;17.20;99.90;;;;;;6126617;23;20158;-69
2022/07/10 06:00:44;;;;;;;3.67;2.05;;;17.00;99.90;;;;;;6126526;23;20536;-70
2022/07/10 06:03:10;;;;;;;3.50;1.83;;;16.90;99.90;;;;;;6126843;23;20156;-70
2022/07/10 06:05:36;;;;;;;2.60;2.00;;;16.90;99.90;;;;;;6126864;23;20177;-70
2022/07/10 06:08:02;;;;;;;2.85;1.90;;;16.80;99.90;;;;;;6127127;23;20782;-70
2022/07/10 06:10:28;;;;;;;4.35;1.90;;;16.60;99.90;;;;;;6126497;23;20210;-69
2022/07/10 06:12:54;;;;;;;3.17;2.17;;;16.60;99.90;;;;;;6127132;23;20158;-71
2022/07/10 06:15:19;;;;;;;1.80;1.70;;;16.60;99.90;;;;;;6126704;23;20157;-69
2022/07/10 06:17:45;;;;;;;2.78;1.50;;;16.60;99.90;;;;;;6126992;23;20545;-69
2022/07/10 06:20:11;;;;;;;3.25;1.80;;;16.70;99.90;;;;;;6126286;23;20257;-72
2022/07/10 06:22:36;;;;;;;2.53;1.75;;;16.90;99.90;;;;;;6126517;23;20149;-72
2022/07/10 06:25:05;;;;;;;4.35;1.83;;;17.00;99.90;;;;;;6126191;23;20174;-69
2022/07/10 06:27:30;;;;;;;3.33;2.20;;;17.10;99.90;;;;;;6126929;23;20599;-69
2022/07/10 06:29:57;;;;;;;2.88;1.80;;;17.20;99.90;;;;;;6125852;23;20248;-69
2022/07/10 06:32:24;;;;;;;3.30;1.60;;;17.40;99.90;;;;;;6126255;23;20227;-69
2022/07/10 06:34:51;;;;;;;2.60;1.88;;;17.80;99.90;;;;;;6126146;23;20662;-70
2022/07/10 06:37:17;;;;;;;3.38;1.75;;;18.10;99.90;;;;;;6124348;23;20156;-70
2022/07/10 06:39:42;;;;;;;3.05;1.40;;;18.20;99.90;;;;;;6125069;23;20248;-70
2022/07/10 06:42:08;;;;;;;4.32;1.70;;;18.20;99.90;;;;;;6126147;23;20157;-73
2022/07/10 06:44:34;;;;;;;2.80;1.50;;;17.90;99.90;;;;;;6125669;23;20985;-72
2022/07/10 06:49:46;;;;;;;2.25;1.20;;;17.80;99.90;;;;;;6125614;23;20180;-70
2022/07/10 06:52:12;;;;;;;1.63;1.40;;;17.90;99.90;;;;;;6125766;23;20232;-70
2022/07/10 06:54:38;;;;;;;2.70;1.52;;;18.00;99.90;;;;;;6126352;23;20221;-71
2022/07/10 06:57:05;;;;;;;2.17;1.30;;;18.30;99.90;;;;;;6126492;23;20161;-72
2022/07/10 06:59:30;;;;;;;3.78;1.60;;;18.60;99.90;;;;;;6125792;23;20154;-69
2022/07/10 07:01:56;;;;;;;1.90;1.48;;;18.80;99.90;;;;;;6124760;23;20207;-70
2022/07/10 07:04:21;;;;;;;2.25;1.25;;;18.90;99.90;;;;;;6126344;23;20596;-70
2022/07/10 07:06:47;;;;;;;1.73;1.63;;;19.20;99.90;;;;;;6125807;23;20153;-71
2022/07/10 07:09:13;;;;;;;1.90;1.55;;;19.50;99.90;;;;;;6125673;23;20588;-71
2022/07/10 07:11:38;;;;;;;1.88;1.77;;;19.70;99.90;;;;;;6125742;23;20237;-71
2022/07/10 07:14:04;;;;;;;3.08;1.58;;;19.70;99.90;;;;;;6126273;23;20173;-73
2022/07/10 07:16:41;;;;;;;1.55;1.23;;;19.90;99.90;;;;;;6125997;23;20154;-71
2022/07/10 07:19:07;;;;;;;2.35;1.35;;;20.00;99.90;;;;;;6099859;23;20146;-70
2022/07/10 07:24:18;;;;;;;2.35;1.27;;;20.60;99.90;;;;;;6125991;23;20226;-71
2022/07/10 07:26:47;;;;;;;4.38;1.77;;;20.70;99.90;;;;;;6125520;23;20165;-70
2022/07/10 07:29:17;;;;;;;1.73;1.30;;;20.80;99.90;;;;;;6125716;23;20146;-73
2022/07/10 07:31:43;;;;;;;2.47;1.42;;;20.80;99.90;;;;;;6125697;23;20176;-72
2022/07/10 07:34:09;;;;;;;3.42;1.52;;;20.80;99.90;;;;;;6125810;23;20224;-71
2022/07/10 07:36:35;;;;;;;2.33;1.40;;;20.70;99.90;;;;;;6123515;23;20663;-74
2022/07/10 07:39:01;;;;;;;2.92;1.35;;;20.90;99.90;;;;;;6124672;23;20178;-71
2022/07/10 07:41:27;;;;;;;2.47;1.83;;;21.20;99.90;;;;;;6125165;23;20198;-71
2022/07/10 07:43:52;;;;;;;2.78;1.83;;;21.30;99.90;;;;;;6124898;23;20142;-71
2022/07/10 07:46:19;;;;;;;1.45;0.98;;;21.20;99.90;;;;;;6124782;23;20516;-71
2022/07/10 07:48:45;;;;;;;3.65;1.70;;;21.20;99.90;;;;;;6123274;23;20238;-72
2022/07/10 07:51:11;;;;;;;3.25;1.50;;;21.30;99.90;;;;;;6098685;23;20229;-71
2022/07/10 07:53:36;;;;;;;1.48;1.30;;;21.40;99.90;;;;;;6125672;23;20143;-72
2022/07/10 07:56:02;;;;;;;3.42;1.42;;;21.20;99.90;;;;;;6124157;23;20604;-71
2022/07/10 07:58:28;;;;;;;2.08;1.20;;;21.30;99.90;;;;;;6124494;23;20225;-71
2022/07/10 08:00:53;;;;;;;3.95;1.98;;;21.50;99.90;;;;;;6123270;23;20643;-71
2022/07/10 08:03:19;;;;;;;2.63;1.20;;;21.60;99.90;;;;;;6124284;23;20178;-70
2022/07/10 08:05:45;;;;;;;3.22;1.80;;;21.60;99.90;;;;;;6124639;23;20213;-72
2022/07/10 08:08:10;;;;;;;3.63;1.20;;;21.80;99.90;;;;;;6124269;23;20587;-71
2022/07/10 08:10:37;;;;;;;2.63;1.23;;;21.80;99.90;;;;;;6124543;23;20177;-72
2022/07/10 08:13:04;;;;;;;1.40;1.05;;;21.60;98.80;;;;;;6123989;23;20150;-71
2022/07/10 08:15:30;;;;;;;1.85;1.58;;;21.40;98.20;;;;;;6124779;23;20165;-71
2022/07/10 08:17:57;;;;;;;1.58;1.48;;;21.30;97.00;;;;;;6124412;23;20150;-72
2022/07/10 08:20:25;;;;;;;2.83;1.77;;;21.40;96.30;;;;;;6120511;23;20257;-70
2022/07/10 08:22:53;;;;;;;1.98;0.90;;;21.20;93.90;;;;;;6117083;23;20205;-70
2022/07/10 08:25:19;;;;;;;4.32;1.27;;;21.30;93.30;;;;;;6122727;23;20269;-70
2022/07/10 08:27:45;;;;;;;1.70;1.08;;;21.30;92.90;;;;;;6124980;23;20161;-70
2022/07/10 08:30:11;;;;;;;0.98;0.77;;;21.30;91.40;;;;;;6125117;23;20178;-70
2022/07/10 08:32:40;;;;;;;2.95;1.20;;;21.30;91.90;;;;;;6124738;23;20150;-70
2022/07/10 08:35:07;;;;;;;1.70;1.10;;;21.30;91.50;;;;;;6124556;23;20146;-70
2022/07/10 08:37:41;;;;;;;1.20;0.80;;;21.60;91.60;;;;;;6125149;23;20182;-70
2022/07/10 08:40:12;;;;;;;2.40;1.10;;;21.90;91.10;;;;;;6124897;23;20174;-69
2022/07/10 08:42:38;;;;;;;1.63;0.85;;;22.40;90.20;;;;;;6124403;23;20177;-70
2022/07/10 08:45:04;;;;;;;0.93;0.93;;;22.90;89.00;;;;;;6125110;23;20174;-70
2022/07/10 08:47:31;;;;;;;1.85;1.08;;;22.90;86.60;;;;;;6125210;23;20150;-69
2022/07/10 08:49:57;;;;;;;2.17;1.35;;;23.00;85.30;;;;;;6124540;23;20432;-70
2022/07/10 08:52:37;;;;;;;2.40;1.15;;;23.20;84.50;;;;;;6124855;23;20146;-70
2022/07/10 08:55:02;;;;;;;2.08;1.50;;;23.20;80.70;;;;;;6125155;23;20208;-70
2022/07/10 08:57:31;;;;;;;2.67;1.05;;;22.80;83.40;;;;;;6124855;23;20150;-70
2022/07/10 08:59:57;;;;;;;1.70;1.00;;;22.70;82.00;;;;;;6124448;23;20249;-70
2022/07/10 09:02:22;;;;;;;2.03;1.02;;;23.10;82.50;;;;;;6124758;23;20181;-70
2022/07/10 09:04:48;;;;;;;0.80;0.80;;;23.30;80.50;;;;;;6124714;23;20178;-69
2022/07/10 09:07:14;;;;;;;1.20;0.63;;;23.50;78.60;;;;;;6124511;23;20545;-70
2022/07/10 09:09:58;;;;;;;1.77;1.55;;;23.20;78.10;;;;;;6124469;23;20182;-71
2022/07/10 09:12:24;;;;;;;2.00;1.10;;;22.10;79.30;;;;;;6125056;23;20588;-70
2022/07/10 09:14:51;;;;;;;2.00;0.90;;;21.60;83.20;;;;;;6124770;23;20153;-70
2022/07/10 09:17:18;;;;;;;1.33;0.93;;;21.50;83.40;;;;;;6124803;23;20165;-69
2022/07/10 09:19:44;;;;;;;2.83;0.80;;;21.70;82.70;;;;;;6124590;23;20174;-70
2022/07/10 09:22:11;;;;;;;1.33;1.05;;;22.20;84.60;;;;;;6124894;23;20189;-70
2022/07/10 09:24:42;;;;;;;2.03;1.33;;;22.60;79.80;;;;;;6124494;23;20177;-70
2022/07/10 09:27:09;;;;;;;2.65;1.42;;;22.70;79.90;;;;;;6124712;23;20491;-71
2022/07/10 09:29:57;;;;;;;2.08;0.85;;;22.50;79.70;;;;;;6124335;23;20177;-72
2022/07/10 09:32:23;;;;;;;1.30;1.20;;;22.10;78.50;;;;;;6124522;23;20130;-70
2022/07/10 09:36:04;;;;;;;1.23;0.85;;;22.20;82.90;;;;;;6124735;23;20550;-70
2022/07/10 09:37:43;;;;;;;1.58;1.15;;;22.70;76.80;;;;;;6123977;23;20158;-70
2022/07/10 09:40:09;;;;;;;2.60;1.15;;;23.30;75.20;;;;;;6124370;23;20533;-70
2022/07/10 09:42:36;;;;;;;1.40;1.30;;;23.80;72.10;;;;;;6124117;23;20161;-69
2022/07/10 09:45:22;;;;;;;3.10;0.80;;;23.90;71.70;;;;;;6124470;23;20552;-70
2022/07/10 09:48:03;;;;;;;2.58;1.05;;;24.30;71.00;;;;;;6124858;23;20135;-70
2022/07/10 09:50:36;;;;;;;1.50;1.00;;;25.00;67.70;;;;;;6124266;23;20166;-70
2022/07/10 09:53:04;;;;;;;1.83;0.80;;;25.00;65.80;;;;;;6124401;23;20161;-70
2022/07/10 09:55:31;;;;;;;2.15;0.82;;;24.60;66.90;;;;;;6124464;23;20173;-70
2022/07/10 09:57:59;;;;;;;1.02;1.00;;;24.00;68.60;;;;;;6124356;23;20161;-70
2022/07/10 10:00:30;;;;;;;1.13;1.02;;;23.70;68.40;;;;;;6124074;23;20181;-72
2022/07/10 10:03:15;;;;;;;1.17;0.93;;;23.40;69.50;;;;;;6124697;23;20134;-70
2022/07/10 10:05:49;;;;;;;1.80;0.95;;;23.10;69.30;;;;;;6124531;23;20512;-70
2022/07/10 10:08:22;;;;;;;3.88;1.05;;;22.70;70.40;;;;;;6124466;23;20602;-69
2022/07/10 10:10:49;;;;;;;1.30;0.60;;;22.30;70.50;;;;;;6124448;23;20222;-72
2022/07/10 10:13:22;;;;;;;1.98;0.90;;;22.20;70.30;;;;;;6124319;23;20157;-70
2022/07/10 10:15:51;;;;;;;3.00;0.93;;;21.90;73.10;;;;;;6098572;23;20161;-70
2022/07/10 10:18:24;;;;;;;4.07;1.10;;;21.60;74.50;;;;;;6124323;23;20154;-70
2022/07/10 10:20:52;;;;;;;2.30;1.17;;;21.50;76.10;;;;;;6124342;23;20181;-70
2022/07/10 10:23:20;;;;;;;1.58;0.90;;;21.50;75.00;;;;;;6098663;23;20162;-70
2022/07/10 10:25:56;;;;;;;2.17;1.00;;;21.40;75.40;;;;;;6124100;23;20205;-70
2022/07/10 10:28:24;;;;;;;1.90;1.08;;;21.30;75.50;;;;;;6124327;23;20146;-71
2022/07/10 10:31:10;;;;;;;1.80;1.00;;;21.40;75.00;;;;;;6123972;23;20178;-70
2022/07/10 10:33:36;;;;;;;1.85;1.20;;;21.50;75.60;;;;;;6124326;23;20150;-70
2022/07/10 10:36:07;;;;;;;1.52;1.15;;;22.00;76.20;;;;;;6124539;23;20497;-70
2022/07/10 10:38:46;;;;;;;1.73;0.80;;;22.50;74.80;;;;;;6124177;23;20241;-70
2022/07/10 10:41:38;;;;;;;1.30;1.20;;;23.40;74.70;;;;;;6124229;23;20173;-69
2022/07/10 10:44:25;;;;;;;1.25;0.88;;;25.30;69.80;;;;;;6126077;23;20135;-69
2022/07/10 10:46:53;;;;;;;1.67;0.90;;;26.00;64.90;;;;;;6125561;23;20626;-71
2022/07/10 10:49:19;;;;;;;1.40;1.23;;;25.50;65.20;;;;;;6125476;23;20154;-71
2022/07/10 10:52:01;;;;;;;1.05;1.05;;;24.90;67.30;;;;;;6126138;23;20561;-70
2022/07/10 10:54:29;;;;;;;2.00;1.00;;;24.00;68.60;;;;;;6126114;23;20531;-70
2022/07/10 10:57:17;;;;;;;1.00;0.88;;;23.50;68.40;;;;;;6125952;23;20150;-69
2022/07/10 10:59:46;;;;;;;1.65;1.00;;;23.10;70.90;;;;;;6125864;23;20170;-71
2022/07/10 11:02:29;;;;;;;2.05;1.13;;;22.90;71.20;;;;;;6126100;23;20622;-69
2022/07/10 11:05:31;;;;;;;1.00;1.00;;;23.00;72.80;;;;;;6125227;23;20205;-71
2022/07/10 11:08:04;;;;;;;2.35;1.00;;;23.40;70.60;;;;;;6126134;23;20168;-70
2022/07/10 11:10:44;;;;;;;1.05;0.98;;;24.20;69.20;;;;;;6125688;23;20245;-70
2022/07/10 11:13:13;;;;;;;1.50;1.05;;;24.70;65.30;;;;;;6125763;23;20138;-69
2022/07/10 11:15:44;;;;;;;1.92;0.90;;;24.90;65.70;;;;;;6126052;23;20173;-70
2022/07/10 11:18:18;;;;;;;1.33;0.85;;;26.50;59.70;;;;;;6125936;23;20150;-70
2022/07/10 11:20:53;;;;;;;3.50;0.90;;;27.00;57.50;;;;;;6125730;23;20177;-69
2022/07/10 11:23:42;;;;;;;1.70;1.25;;;26.60;58.60;;;;;;6125438;23;20138;-70
2022/07/10 11:26:11;;;;;;;0.93;0.77;;;26.10;59.90;;;;;;6125676;23;20290;-70
2022/07/10 11:28:58;;;;;;;1.80;0.70;;;26.70;58.80;;;;;;6125350;23;20150;-70
2022/07/10 11:31:26;;;;;;;0.93;0.45;;;26.60;57.90;;;;;;6125732;23;20169;-70
2022/07/10 11:33:53;;;;;;;1.23;0.90;;;26.20;57.80;;;;;;6125758;23;20153;-70
2022/07/10 11:36:32;;;;;;;1.92;0.90;;;25.90;57.70;;;;;;6125508;23;20154;-69
2022/07/10 11:39:01;;;;;;;2.30;0.80;;;25.50;59.10;;;;;;6125526;23;20133;-69
2022/07/10 11:41:27;;;;;;;0.80;0.80;;;25.10;59.10;;;;;;6125624;23;20508;-69
2022/07/10 11:43:55;;;;;;;0.50;0.50;;;25.00;59.70;;;;;;6125305;23;20160;-69
2022/07/10 11:46:23;;;;;;;0.60;0.60;;;25.30;57.50;;;;;;6125305;23;20517;-70
2022/07/10 11:48:52;;;;;;;0.60;0.60;;;26.50;55.40;;;;;;6125149;23;20221;-69
2022/07/10 11:51:26;;;;;;;1.33;0.88;;;27.10;54.60;;;;;;6125497;23;20536;-68
2022/07/10 11:54:04;;;;;;;1.33;1.08;;;27.20;53.90;;;;;;6124991;23;20143;-70
2022/07/10 11:56:32;;;;;;;1.45;0.90;;;27.30;53.50;;;;;;6125649;23;20580;-68
2022/07/10 11:59:09;;;;;;;2.92;1.40;;;26.90;55.10;;;;;;6098902;23;20181;-67
2022/07/10 12:01:41;;;;;;;0.93;0.80;;;27.30;54.80;;;;;;6125376;23;20177;-68
2022/07/10 12:04:08;;;;;;;0.77;0.77;;;27.80;54.20;;;;;;6125020;23;20294;-69
2022/07/10 12:06:36;;;;;;;0.90;0.90;;;28.30;52.30;;;;;;6125446;23;20178;-67
2022/07/10 12:09:16;;;;;;;0.90;0.68;;;28.50;52.50;;;;;;6125267;23;20151;-68
2022/07/10 12:11:43;;;;;;;1.25;0.80;;;28.90;50.10;;;;;;6125383;23;20240;-68
2022/07/10 12:14:22;;;;;;;0.70;0.63;;;28.70;50.70;;;;;;6125265;23;20150;-68
2022/07/10 12:16:53;;;;;;;0.70;0.50;;;28.80;50.20;;;;;;6125228;23;20134;-68
2022/07/10 12:19:27;;;;;;;1.05;0.63;;;29.40;48.60;;;;;;6125057;23;20165;-65
2022/07/10 12:21:53;;;;;;;3.55;0.90;;;30.60;46.70;;;;;;6125243;23;20579;-67
2022/07/10 12:24:20;;;;;;;1.80;0.80;;;31.50;45.10;;;;;;6125326;23;20157;-64
2022/07/10 12:26:46;;;;;;;1.35;0.68;;;30.90;46.10;;;;;;6125075;23;20266;-65
2022/07/10 12:29:32;;;;;;;1.45;0.70;;;29.90;46.30;;;;;;6125090;23;20145;-69
2022/07/10 12:32:00;;;;;;;0.75;0.65;;;28.80;47.50;;;;;;6124472;23;20154;-69
2022/07/10 12:34:42;;;;;;;2.17;0.80;;;27.60;49.10;;;;;;6124885;23;20157;-71
2022/07/10 12:37:12;;;;;;;0.70;0.57;;;26.40;51.20;;;;;;6125055;23;20555;-69
2022/07/10 12:39:49;;;;;;;0.77;0.70;;;25.40;53.40;;;;;;6124678;23;20154;-68
2022/07/10 12:42:25;;;;;;;0.88;0.45;;;25.30;54.40;;;;;;6125312;23;20484;-69
2022/07/10 12:44:51;;;;;;;0.85;0.50;;;25.60;53.90;;;;;;6125013;23;20497;-69
2022/07/10 12:47:19;;;;;;;0.98;0.57;;;26.00;51.90;;;;;;6124983;23;20157;-66
2022/07/10 12:49:56;;;;;;;1.52;0.88;;;27.90;51.80;;;;;;6124535;23;20484;-67
2022/07/10 12:52:22;;;;;;;0.80;0.50;;;30.00;46.40;;;;;;6124566;23;20144;-66
2022/07/10 12:54:48;;;;;;;1.05;0.40;;;30.20;47.00;;;;;;6125070;23;20154;-66
2022/07/10 12:57:14;;;;;;;0.40;0.40;;;30.20;45.60;;;;;;6124760;23;20550;-68
2022/07/10 12:59:41;;;;;;;2.38;0.55;;;29.70;46.20;;;;;;6124659;23;20153;-69